createdAt,value
2022-11-24T00:00:29.587Z,-2.67
2022-11-24T00:05:52.548Z,-2.64
2022-11-24T00:10:55.479Z,-2.63
2022-11-24T00:16:26.237Z,-2.66
2022-11-24T00:21:30.903Z,-2.68
2022-11-24T00:26:37.607Z,-2.63
2022-11-24T00:31:42.569Z,-2.57
2022-11-24T00:36:45.542Z,-2.50
2022-11-24T00:41:48.521Z,-2.50
2022-11-24T00:46:51.631Z,-2.58
2022-11-24T00:51:54.899Z,-2.61
2022-11-24T00:56:57.832Z,-2.65
2022-11-24T01:02:00.889Z,-2.69
2022-11-24T01:07:03.914Z,-2.76
2022-11-24T01:12:07.034Z,-2.76
2022-11-24T01:17:10.042Z,-2.74
2022-11-24T01:22:13.826Z,-2.70
2022-11-24T01:27:16.811Z,-2.67
2022-11-24T01:32:19.812Z,-2.70
2022-11-24T01:37:22.770Z,-2.75
2022-11-24T01:42:25.883Z,-2.75
2022-11-24T01:47:40.974Z,-2.73
2022-11-24T01:52:49.959Z,-2.74
2022-11-24T01:58:25.556Z,-2.82
2022-11-24T02:03:34.619Z,-2.86
2022-11-24T02:08:49.606Z,-2.81
2022-11-24T02:13:54.491Z,-2.77
2022-11-24T02:18:57.805Z,-2.75
2022-11-24T02:24:08.924Z,-2.75
2022-11-24T02:29:13.334Z,-2.76
2022-11-24T02:34:16.310Z,-2.67
2022-11-24T02:39:19.471Z,-2.58
2022-11-24T02:44:25.761Z,-2.60
2022-11-24T02:49:28.739Z,-2.59
2022-11-24T02:54:32.390Z,-2.63
2022-11-24T02:59:35.853Z,-2.67
2022-11-24T03:04:38.776Z,-2.70
2022-11-24T03:09:41.800Z,-2.72
2022-11-24T03:14:44.883Z,-2.70
2022-11-24T03:19:47.903Z,-2.66
2022-11-24T03:24:50.938Z,-2.67
2022-11-24T03:29:53.995Z,-2.69
2022-11-24T03:34:56.981Z,-2.71
2022-11-24T03:40:00.010Z,-2.74
2022-11-24T03:45:29.802Z,-2.71
2022-11-24T03:50:26.483Z,-2.71
2022-11-24T03:55:29.493Z,-2.70
2022-11-24T04:00:32.622Z,-2.73
2022-11-24T04:05:36.650Z,-2.69
2022-11-24T04:10:40.387Z,-2.60
2022-11-24T04:15:44.234Z,-2.53
2022-11-24T04:20:52.395Z,-2.50
2022-11-24T04:25:55.369Z,-2.53
2022-11-24T04:31:06.200Z,-2.55
2022-11-24T04:36:09.344Z,-2.55
2022-11-24T04:41:12.373Z,-2.60
2022-11-24T04:46:15.330Z,-2.68
2022-11-24T04:51:18.467Z,-2.77
2022-11-24T04:56:21.432Z,-2.79
2022-11-24T05:01:24.486Z,-2.83
2022-11-24T05:06:27.496Z,-2.84
2022-11-24T05:11:30.556Z,-2.86
2022-11-24T05:16:33.573Z,-2.82
2022-11-24T05:21:37.006Z,-2.76
2022-11-24T05:26:39.999Z,-2.74
2022-11-24T05:31:42.920Z,-2.78
2022-11-24T05:36:56.441Z,-2.81
2022-11-24T05:41:59.478Z,-2.77
2022-11-24T05:47:02.435Z,-2.73
2022-11-24T05:52:05.416Z,-2.70
2022-11-24T05:57:08.260Z,-2.69
2022-11-24T06:02:11.404Z,-2.70
2022-11-24T06:07:14.605Z,-2.72
2022-11-24T06:12:17.509Z,-2.74
2022-11-24T06:17:20.386Z,-2.70
2022-11-24T06:22:23.229Z,-2.63
2022-11-24T06:27:26.403Z,-2.60
2022-11-24T06:32:29.380Z,-2.61
2022-11-24T06:37:32.319Z,-2.68
2022-11-24T06:42:36.541Z,-2.66
2022-11-24T06:47:39.487Z,-2.59
2022-11-24T06:52:42.452Z,-2.53
2022-11-24T06:57:45.305Z,-2.50
2022-11-24T07:02:48.219Z,-2.48
2022-11-24T07:07:51.365Z,-2.40
2022-11-24T07:12:54.275Z,-2.31
2022-11-24T07:17:57.171Z,-2.26
2022-11-24T07:23:00.044Z,-2.24
2022-11-24T07:28:03.219Z,-2.24
2022-11-24T07:33:06.087Z,-2.16
2022-11-24T07:38:08.955Z,-2.06
2022-11-24T07:43:18.603Z,-1.98
2022-11-24T07:48:24.947Z,-1.87
2022-11-24T07:53:28.951Z,-1.80
2022-11-24T07:58:36.171Z,-1.71
2022-11-24T08:03:39.599Z,-1.60
2022-11-24T08:08:42.665Z,-1.47
2022-11-24T08:13:45.757Z,-1.47
2022-11-24T08:18:56.245Z,-1.35
2022-11-24T08:23:59.305Z,-1.21
2022-11-24T08:29:02.364Z,-1.17
2022-11-24T08:34:06.459Z,-1.18
2022-11-24T08:39:12.161Z,-1.19
2022-11-24T08:44:18.354Z,-1.13
2022-11-24T08:49:22.337Z,-1.09
2022-11-24T08:54:25.961Z,-1.05
2022-11-24T08:59:29.814Z,-1.07
2022-11-24T09:04:34.535Z,-1.10
2022-11-24T09:09:39.859Z,-1.17
2022-11-24T09:14:44.872Z,-1.10
2022-11-24T09:25:09.847Z,-1.06
2022-11-24T09:30:14.069Z,-0.88
2022-11-24T09:35:17.175Z,-0.79
2022-11-24T09:40:22.364Z,-0.81
2022-11-24T09:46:04.877Z,-0.77
2022-11-24T09:51:13.851Z,-0.69
2022-11-24T09:56:22.695Z,-0.55
2022-11-24T10:01:52.870Z,-0.45
2022-11-24T10:07:22.604Z,-0.33
2022-11-24T10:12:44.240Z,-0.35
2022-11-24T10:18:17.270Z,-0.38
2022-11-24T10:24:02.729Z,-0.34
2022-11-24T10:29:32.795Z,-0.36
2022-11-24T10:34:43.051Z,-0.41
2022-11-24T10:40:01.084Z,-0.49
2022-11-24T10:45:14.136Z,-0.52
2022-11-24T10:50:31.606Z,-0.50
2022-11-24T10:55:54.995Z,-0.46
2022-11-24T11:01:01.731Z,-0.57
2022-11-24T11:06:30.809Z,-0.64
2022-11-24T11:11:35.835Z,-0.74
2022-11-24T11:16:38.850Z,-0.72
2022-11-24T11:21:42.055Z,-0.67
2022-11-24T11:26:45.302Z,-0.59
2022-11-24T11:37:31.114Z,-0.60
2022-11-24T11:48:15.263Z,-0.78
2022-11-24T11:53:37.098Z,-0.89
2022-11-24T11:59:06.368Z,-0.94
2022-11-24T12:04:40.514Z,-0.98
2022-11-24T12:10:04.562Z,-0.97
2022-11-24T12:15:26.402Z,-1.02
2022-11-24T12:20:38.094Z,-1.07
2022-11-24T12:25:59.348Z,-1.08
2022-11-24T12:31:14.378Z,-1.12
2022-11-24T12:36:36.834Z,-1.16
2022-11-24T12:42:21.004Z,-1.19
2022-11-24T12:47:43.832Z,-1.14
2022-11-24T12:53:13.910Z,-1.04
2022-11-24T12:58:46.135Z,-0.98
2022-11-24T13:04:11.211Z,-1.04
2022-11-24T13:09:14.649Z,-1.11
2022-11-24T13:14:32.840Z,-1.06
2022-11-24T13:19:37.455Z,-1.01
2022-11-24T13:24:42.308Z,-1.00
2022-11-24T13:29:50.722Z,-1.08
2022-11-24T13:34:55.124Z,-1.15
2022-11-24T13:39:59.297Z,-1.13
2022-11-24T13:45:23.632Z,-1.14
2022-11-24T13:50:49.560Z,-1.17
2022-11-24T13:56:00.786Z,-1.24
2022-11-24T14:01:03.621Z,-1.27
2022-11-24T14:06:06.647Z,-1.31
2022-11-24T14:11:17.325Z,-1.29
2022-11-24T14:16:22.463Z,-1.34
2022-11-24T14:21:25.393Z,-1.43
2022-11-24T14:26:35.526Z,-1.47
2022-11-24T14:31:38.501Z,-1.53
2022-11-24T14:36:42.602Z,-1.61
2022-11-24T14:42:03.975Z,-1.71
2022-11-24T14:47:31.185Z,-1.77
2022-11-24T14:52:35.519Z,-1.75
2022-11-24T14:57:40.419Z,-1.74
2022-11-24T15:02:53.503Z,-1.72
2022-11-24T15:08:02.849Z,-1.73
2022-11-24T15:13:16.400Z,-1.73
2022-11-24T15:19:03.385Z,-1.72
2022-11-24T15:24:18.302Z,-1.67
2022-11-24T15:29:21.165Z,-1.58
2022-11-24T15:34:23.968Z,-1.49
2022-11-24T15:39:26.815Z,-1.44
2022-11-24T15:44:30.859Z,-1.45
2022-11-24T15:49:33.808Z,-1.47
2022-11-24T15:54:37.321Z,-1.49
2022-11-24T15:59:40.221Z,-1.48
2022-11-24T16:04:43.123Z,-1.44
2022-11-24T16:09:46.031Z,-1.53
2022-11-24T16:14:48.958Z,-1.66
2022-11-24T16:20:00.263Z,-1.65
2022-11-24T16:25:07.803Z,-1.62
2022-11-24T16:30:12.637Z,-1.64
2022-11-24T16:35:16.157Z,-1.65
2022-11-24T16:40:19.112Z,-1.69
2022-11-24T16:45:22.218Z,-1.66
2022-11-24T16:50:25.122Z,-1.59
2022-11-24T16:55:28.024Z,-1.54
2022-11-24T17:00:31.132Z,-1.61
2022-11-24T17:05:33.982Z,-1.70
2022-11-24T17:10:40.015Z,-1.76
2022-11-24T17:15:48.440Z,-1.75
2022-11-24T17:20:57.856Z,-1.72
2022-11-24T17:26:27.949Z,-1.73
2022-11-24T17:31:35.802Z,-1.73
2022-11-24T17:36:44.902Z,-1.71
2022-11-24T17:41:47.806Z,-1.71
2022-11-24T17:46:51.118Z,-1.71
2022-11-24T17:51:53.972Z,-1.66
2022-11-24T17:56:56.822Z,-1.68
2022-11-24T18:01:59.853Z,-1.76
2022-11-24T18:07:03.040Z,-1.80
2022-11-24T18:12:06.406Z,-1.86
2022-11-24T18:17:10.343Z,-1.87
2022-11-24T18:22:13.259Z,-1.87
2022-11-24T18:27:17.104Z,-1.90
2022-11-24T18:32:20.006Z,-1.91
2022-11-24T18:37:23.015Z,-1.96
2022-11-24T18:42:28.370Z,-1.95
2022-11-24T18:47:31.480Z,-1.89
2022-11-24T18:52:34.381Z,-1.83
2022-11-24T18:57:37.197Z,-1.78
2022-11-24T19:02:40.127Z,-1.73
2022-11-24T19:07:43.196Z,-1.70
2022-11-24T19:12:46.162Z,-1.68
2022-11-24T19:17:49.101Z,-1.70
2022-11-24T19:22:52.005Z,-1.76
2022-11-24T19:27:54.936Z,-1.77
2022-11-24T19:32:57.900Z,-1.81
2022-11-24T19:38:00.766Z,-1.82
2022-11-24T19:43:03.821Z,-1.84
2022-11-24T19:48:06.932Z,-1.84
2022-11-24T19:53:09.830Z,-1.89
2022-11-24T19:58:12.740Z,-1.89
2022-11-24T20:03:15.738Z,-1.88
2022-11-24T20:08:18.741Z,-1.85
2022-11-24T20:13:21.647Z,-1.84
2022-11-24T20:18:25.571Z,-1.90
2022-11-24T20:23:28.576Z,-1.92
2022-11-24T20:28:32.092Z,-1.94
2022-11-24T20:33:35.993Z,-1.84
2022-11-24T20:38:39.986Z,-1.72
2022-11-24T20:43:44.381Z,-1.66
2022-11-24T20:48:47.901Z,-1.63
2022-11-24T20:53:53.368Z,-1.67
2022-11-24T20:58:56.787Z,-1.68
2022-11-24T21:03:59.887Z,-1.67
2022-11-24T21:09:04.191Z,-1.70
2022-11-24T21:14:08.248Z,-1.74
2022-11-24T21:19:18.843Z,-1.77
2022-11-24T21:24:21.859Z,-1.70
2022-11-24T21:29:25.776Z,-1.66
2022-11-24T21:34:29.080Z,-1.70
2022-11-24T21:39:32.132Z,-1.76
2022-11-24T21:44:35.525Z,-1.78
2022-11-24T21:49:38.710Z,-1.78
2022-11-24T21:54:41.611Z,-1.85
2022-11-24T21:59:44.515Z,-1.91
2022-11-24T22:04:47.417Z,-1.95
2022-11-24T22:09:50.525Z,-2.02
2022-11-24T22:14:53.431Z,-2.02
2022-11-24T22:19:56.329Z,-1.99
2022-11-24T22:24:59.172Z,-1.94
2022-11-24T22:30:02.858Z,-1.87
2022-11-24T22:35:06.737Z,-1.89
2022-11-24T22:40:09.790Z,-1.88
2022-11-24T22:45:12.688Z,-1.82
2022-11-24T22:50:15.599Z,-1.78
2022-11-24T22:55:18.511Z,-1.73
2022-11-24T23:00:21.399Z,-1.78
2022-11-24T23:05:24.400Z,-1.87
2022-11-24T23:10:27.509Z,-1.87
2022-11-24T23:15:30.820Z,-1.80
2022-11-24T23:20:34.691Z,-1.74
2022-11-24T23:25:37.650Z,-1.80
2022-11-24T23:30:40.450Z,-1.84
2022-11-24T23:35:43.352Z,-1.87
2022-11-24T23:40:46.562Z,-1.89
2022-11-24T23:45:49.439Z,-1.93
2022-11-24T23:50:52.399Z,-1.92
2022-11-24T23:55:55.536Z,-1.90
